Latest Weather Observations for Bega

IDN60801

Issued at 9:04 am EDT Thursday 29 January 2015 (issued every 30 minutes, with the page automatically refreshed every 10 minutes)

About weather observations | Map of weather stations | Latest weather observations for NSW | Other Formats
Station Details ID: 069139 Name: BEGA AWS Lat: -36.67 Lon: 149.82 Height: 41.0 m
Data from the previous 72 hours. | See also: Recent months at Bega
Date/Time
EDT
Temp
°C
App
Temp
°C
Dew
Point
Rel
Hum
%
Delta-T
°C
Wind Press
QNH
hPa
Press
MSL
hPa
Rain
since 9 am
mm
Dir
 
Spd
km/h
Gust
km/h
Spd
kts
Gust
kts
29/08:30am 15.9 12.6 10.9 72 2.7 SW 19 26 10 14 1015.9 1015.7 3.6
29/08:00am 14.9 10.4 9.9 72 2.6 SW 24 35 13 19 1015.7 1015.5 3.6
29/07:30am 14.7 10.9 9.9 73 2.5 WSW 20 26 11 14 1015.3 1015.2 3.6
29/07:00am 14.1 10.2 9.3 73 2.5 WSW 20 26 11 14 1015.3 1015.2 3.6
29/06:30am 14.0 10.0 9.2 73 2.4 SW 20 32 11 17 1015.2 1015.1 3.6
29/06:00am 14.0 10.1 8.8 71 2.6 SW 19 28 10 15 1015.0 1014.9 3.6
29/05:30am 14.0 9.2 9.0 72 2.5 SW 24 35 13 19 1014.9 1014.8 3.6
29/05:00am 14.0 9.6 9.0 72 2.5 SW 22 32 12 17 1014.8 1014.7 3.6
29/04:30am 14.5 10.1 8.9 69 2.8 WSW 22 30 12 16 1014.8 1014.7 3.6
29/04:00am 14.1 9.2 8.5 69 2.8 SW 24 32 13 17 1014.9 1014.8 3.6
29/03:30am 13.7 9.8 8.5 71 2.6 WSW 19 26 10 14 1015.0 1014.9 3.6
29/03:00am 13.7 10.6 8.7 72 2.5 WSW 15 26 8 14 1015.3 1015.2 3.6
29/02:30am 14.0 11.0 9.2 73 2.4 WSW 15 24 8 13 1015.8 1015.6 3.6
29/02:00am 14.3 11.0 9.5 73 2.5 WSW 17 26 9 14 1016.1 1015.9 3.6
29/01:30am 13.6 11.1 9.8 78 2.0 WSW 13 20 7 11 1016.4 1016.2 3.6
29/01:00am 14.2 12.6 10.2 77 2.1 SW 9 15 5 8 1016.8 1016.6 3.6
29/12:30am 15.1 11.5 10.7 75 2.3 SW 20 30 11 16 1017.0 1016.8 3.6
29/12:00am 15.2 11.8 11.2 77 2.1 SW 20 30 11 16 1017.2 1017.0 3.6
 
Date/Time
EDT
Temp
°C
App
Temp
°C
Dew
Point
Rel
Hum
%
Delta-T
°C
Wind Press
QNH
hPa
Press
MSL
hPa
Rain
since 9 am
mm
Dir
 
Spd
km/h
Gust
km/h
Spd
kts
Gust
kts
28/11:30pm 15.3 12.5 11.3 77 2.1 WSW 17 20 9 11 1017.3 1017.1 3.6
28/11:00pm 15.4 12.0 11.4 77 2.1 SW 20 24 11 13 1017.5 1017.3 3.6
28/10:30pm 15.1 12.1 11.9 81 1.7 WSW 19 24 10 13 1017.7 1017.5 3.6
28/10:00pm 14.9 12.2 11.7 81 1.7 WSW 17 20 9 11 1017.8 1017.6 3.6
28/09:30pm 14.8 11.8 11.8 82 1.6 WSW 19 22 10 12 1018.0 1017.8 3.6
28/09:00pm 14.9 11.7 11.9 82 1.6 SW 20 26 11 14 1017.8 1017.6 3.6
28/08:30pm 14.3 12.2 12.5 89 1.0 WSW 15 17 8 9 1017.7 1017.5 3.6
28/08:00pm 14.2 11.7 12.4 89 1.0 SW 17 20 9 11 1017.7 1017.5 3.6
28/07:30pm 15.1 13.3 12.1 82 1.6 SSW 13 20 7 11 1017.5 1017.3 3.4
28/07:00pm 15.1 11.8 12.8 86 1.3 SSE 22 35 12 19 1017.3 1017.1 3.0
28/06:30pm 16.4 15.7 13.3 82 1.7 SW 9 13 5 7 1016.9 1016.7 2.8
28/06:00pm 16.3 15.6 13.2 82 1.7 SW 9 15 5 8 1016.8 1016.6 2.8
28/05:30pm 16.3 14.1 14.3 88 1.1 SSW 19 30 10 16 1016.7 1016.5 2.6
28/05:00pm 18.1 17.8 14.4 79 2.1 WSW 9 15 5 8 1016.3 1016.1 1.6
28/04:30pm 17.7 17.2 14.8 83 1.7 W 11 15 6 8 1016.5 1016.3 1.6
28/04:00pm 16.9 16.3 14.5 86 1.4 SW 11 15 6 8 1016.7 1016.5 1.6
28/03:30pm 16.3 15.6 14.3 88 1.1 SW 11 17 6 9 1016.9 1016.7 1.4
28/03:00pm 16.4 15.0 13.5 83 1.6 S 13 20 7 11 1017.2 1017.0 0.6
28/02:30pm 19.2 17.4 12.0 63 4.0 SSE 13 20 7 11 1016.7 1016.5 0.0
28/02:00pm 19.4 16.5 12.2 63 4.0 S 19 24 10 13 1016.8 1016.6 0.0
28/01:30pm 19.3 16.3 12.1 63 4.0 SSW 19 26 10 14 1016.9 1016.7 0.0
28/01:00pm 20.0 17.0 12.7 63 4.1 SSW 20 26 11 14 1016.8 1016.6 0.0
28/12:30pm 19.5 16.8 13.0 66 3.7 SSW 19 22 10 12 1016.9 1016.7 0.0
28/12:00pm 20.3 15.9 11.8 58 4.7 S 26 39 14 21 1016.9 1016.7 0.0
28/11:30am 19.6 15.8 12.4 63 4.0 S 24 33 13 18 1016.9 1016.7 0.0
28/11:00am 19.5 17.1 12.5 64 3.9 SSE 17 28 9 15 1017.0 1016.8 0.0
28/10:30am 21.0 19.5 13.2 61 4.5 S 13 20 7 11 1017.0 1016.8 0.0
28/10:00am 20.3 18.0 13.0 63 4.1 SSW 17 28 9 15 1017.0 1016.8 0.0
28/09:30am 19.3 17.3 12.8 66 3.7 SSW 15 20 8 11 1017.0 1016.8 0.0
28/09:00am 18.3 15.3 11.8 66 3.6 SSW 19 26 10 14 1016.8 1016.6 0.4
28/08:30am 18.1 15.4 13.0 72 2.9 SW 19 24 10 13 1016.7 1016.5 0.4
28/08:00am 17.3 15.3 12.6 74 2.6 SW 15 20 8 11 1016.7 1016.5 0.4
28/07:30am 15.4 16.6 13.9 91 0.8 CALM 0 0 0 0 1016.4 1016.2 0.4
28/07:00am 14.4 15.4 14.2 99 0.1 ENE 2 9 1 5 1016.0 1015.8 0.4
28/06:30am 13.7 14.8 13.4 98 0.2 CALM 0 0 0 0 1015.9 1015.7 0.4
28/06:00am 13.9 15.0 13.6 98 0.2 CALM 0 0 0 0 1015.8 1015.6 0.4
28/05:30am 14.2 15.4 13.7 97 0.3 CALM 0 0 0 0 1015.8 1015.6 0.4
28/05:00am 14.3 14.7 13.8 97 0.3 NE 4 7 2 4 1015.7 1015.5 0.4
28/04:30am 14.7 16.0 14.1 96 0.3 CALM 0 0 0 0 1015.4 1015.3 0.4
28/04:00am 14.1 13.4 12.1 88 1.1 SW 7 9 4 5 1015.2 1015.1 0.4
28/03:30am 15.6 17.2 14.8 95 0.5 CALM 0 0 0 0 1015.3 1015.2 0.4
28/03:00am 15.7 17.0 14.2 91 0.9 CALM 0 0 0 0 1015.5 1015.4 0.4
28/02:30am 15.9 17.3 14.4 91 0.9 CALM 0 0 0 0 1015.9 1015.7 0.4
28/02:00am 16.1 17.6 14.6 91 0.9 CALM 0 0 0 0 1016.2 1016.0 0.4
28/01:30am 16.1 17.4 14.1 88 1.1 CALM 0 0 0 0 1016.4 1016.2 0.4
28/01:00am 16.2 16.7 14.0 87 1.2 WNW 4 7 2 4 1016.5 1016.3 0.4
28/12:30am 16.1 16.6 14.1 88 1.1 WNW 4 7 2 4 1016.6 1016.4 0.4
28/12:00am 16.2 17.7 14.7 91 0.9 CALM 0 0 0 0 1016.8 1016.6 0.4
 
Date/Time
EDT
Temp
°C
App
Temp
°C
Dew
Point
Rel
Hum
%
Delta-T
°C
Wind Press
QNH
hPa
Press
MSL
hPa
Rain
since 9 am
mm
Dir
 
Spd
km/h
Gust
km/h
Spd
kts
Gust
kts
27/11:30pm 16.1 17.5 14.5 90 0.9 CALM 0 0 0 0 1016.8 1016.6 0.4
27/11:00pm 16.4 18.0 14.8 90 0.9 CALM 0 0 0 0 1016.6 1016.4 0.4
27/10:30pm 16.4 17.7 14.2 87 1.3 CALM 0 0 0 0 1016.7 1016.5 0.4
27/10:00pm 16.3 17.7 14.5 89 1.0 CALM 0 0 0 0 1016.7 1016.5 0.4
27/09:30pm 16.6 16.7 14.4 87 1.3 W 7 9 4 5 1016.5 1016.3 0.4
27/09:00pm 16.7 16.3 14.2 85 1.4 WSW 9 13 5 7 1016.4 1016.2 0.4
27/08:30pm 16.8 16.5 14.3 85 1.4 WSW 9 13 5 7 1016.1 1015.9 0.4
27/08:00pm 17.0 17.2 14.8 87 1.3 WSW 7 9 4 5 1016.1 1015.9 0.4
27/07:30pm 17.1 18.6 14.6 85 1.4 CALM 0 0 0 0 1016.0 1015.8 0.4
27/07:00pm 17.2 17.5 14.5 84 1.6 W 6 9 3 5 1015.7 1015.5 0.4
27/06:30pm 17.3 17.7 14.8 85 1.4 WNW 6 7 3 4 1015.3 1015.2 0.4
27/06:00pm 17.2 17.7 15.0 87 1.3 WSW 6 7 3 4 1015.1 1015.0 0.4
27/05:30pm 16.9 17.3 14.7 87 1.3 S 6 11 3 6 1015.2 1015.1 0.4
27/05:00pm 17.3 19.0 15.3 88 1.2 CALM 0 0 0 0 1015.4 1015.3 0.4
27/04:30pm 16.8 16.9 15.5 92 0.8 SSW 9 13 5 7 1015.4 1015.3 0.0
27/04:00pm 16.7 16.0 15.4 92 0.8 SSW 13 15 7 8 1015.8 1015.6 0.0
27/03:30pm 17.0 16.9 15.0 88 1.2 SW 9 13 5 7 1015.8 1015.6 0.0
27/03:00pm 17.1 16.9 14.6 85 1.4 S 9 13 5 7 1016.0 1015.8 0.0
27/02:30pm 17.3 17.1 14.8 85 1.4 S 9 13 5 7 1016.1 1015.9 0.0
27/02:00pm 18.3 18.6 13.4 73 2.8 SSW 4 11 2 6 1016.1 1015.9 0.0
27/01:30pm 18.5 18.9 12.5 68 3.4 SE 2 7 1 4 1016.1 1015.9 0.0
27/01:00pm 18.7 18.3 12.5 67 3.5 SSW 6 9 3 5 1016.2 1016.0 0.0
27/12:30pm 18.7 18.8 12.7 68 3.4 SSW 4 9 2 5 1016.4 1016.2 0.0
27/12:00pm 18.7 18.9 12.9 69 3.3 NW 4 9 2 5 1016.6 1016.4 0.0
27/11:30am 18.6 18.5 12.1 66 3.6 W 4 9 2 5 1016.7 1016.5 0.0
27/11:00am 18.3 17.9 12.3 68 3.3 SSW 6 7 3 4 1016.9 1016.7 0.0
27/10:30am 17.8 17.6 12.9 73 2.7 SSE 6 11 3 6 1016.9 1016.7 0.0
27/10:00am 16.4 17.4 13.3 82 1.7 CALM 0 0 0 0 1017.1 1016.9 0.0
27/09:30am 16.3 17.1 13.6 84 1.5 SE 2 7 1 4 1016.9 1016.7 0.0
27/09:00am 15.7 16.7 13.2 85 1.4 CALM 0 0 0 0 1017.0 1016.8 0.0
27/08:30am 15.3 16.6 14.0 92 0.7 CALM 0 6 0 3 1016.7 1016.5 0.0
27/08:00am 14.7 15.5 13.6 93 0.6 ENE 2 6 1 3 1016.5 1016.3 0.0
27/07:30am 14.4 15.5 13.6 95 0.4 CALM 0 0 0 0 1016.3 1016.1 0.0
27/07:00am 14.2 15.3 13.4 95 0.4 CALM 0 0 0 0 1016.3 1016.1 0.0
27/06:30am 14.1 15.1 13.3 95 0.4 CALM 0 0 0 0 1016.2 1016.0 0.0
27/06:00am 14.0 15.0 13.2 95 0.4 CALM 0 0 0 0 1016.2 1016.0 0.0
27/05:30am 13.9 14.9 13.1 95 0.4 CALM 0 0 0 0 1015.9 1015.7 0.0
27/05:00am 13.8 14.7 13.0 95 0.4 CALM 0 0 0 0 1015.9 1015.7 0.0
27/04:30am 13.8 14.7 13.0 95 0.4 CALM 0 0 0 0 1016.0 1015.8 0.0
27/04:00am 13.8 14.7 13.0 95 0.4 CALM 0 0 0 0 1016.3 1016.1 0.0
27/03:30am 13.8 14.6 12.7 93 0.6 CALM 0 0 0 0 1016.4 1016.2 0.0
27/03:00am 14.0 14.9 12.9 93 0.6 CALM 0 0 0 0 1016.7 1016.5 0.0
27/02:30am 14.0 15.0 13.1 94 0.5 CALM 0 0 0 0 1016.8 1016.6 0.0
27/02:00am 13.9 14.5 13.0 94 0.5 ENE 2 6 1 3 1017.1 1016.9 0.0
27/01:30am 13.9 14.3 12.6 92 0.7 N 2 6 1 3 1017.2 1017.0 0.0
27/01:00am 13.7 13.7 12.4 92 0.7 N 4 7 2 4 1017.6 1017.4 0.0
27/12:30am 13.5 12.2 12.4 93 0.6 NW 11 13 6 7 1017.9 1017.7 0.0
27/12:00am 13.6 12.8 12.8 95 0.4 NNW 9 9 5 5 1018.1 1017.9 0.0
 
Date/Time
EDT
Temp
°C
App
Temp
°C
Dew
Point
Rel
Hum
%
Delta-T
°C
Wind Press
QNH
hPa
Press
MSL
hPa
Rain
since 9 am
mm
Dir
 
Spd
km/h
Gust
km/h
Spd
kts
Gust
kts
26/11:30pm 14.0 14.2 11.9 87 1.1 NNE 2 7 1 4 1018.5 1018.3 0.0
26/11:00pm 14.6 14.2 11.0 79 1.9 ENE 4 7 2 4 1018.5 1018.3 0.0
26/10:30pm 15.5 14.6 11.3 76 2.3 S 7 13 4 7 1018.5 1018.3 0.0
26/10:00pm 15.8 14.9 10.8 72 2.7 WSW 6 9 3 5 1018.3 1018.1 0.0
26/09:30pm 15.8 14.4 11.0 73 2.6 SW 9 11 5 6 1018.0 1017.8 0.0
26/09:00pm 16.0 14.2 11.0 72 2.7 SSW 11 13 6 7 1017.7 1017.5 0.0
26/08:30pm 16.2 14.5 11.2 72 2.7 SSW 11 13 6 7 1017.4 1017.2 0.0
26/08:00pm 16.6 14.4 10.7 68 3.1 S 13 17 7 9 1017.1 1016.9 0.0
26/07:30pm 16.7 15.4 11.4 71 2.9 S 9 11 5 6 1016.8 1016.6 0.0
26/07:00pm 16.9 15.5 11.0 68 3.2 SE 9 15 5 8 1016.5 1016.3 0.0
26/06:30pm 17.1 16.2 11.2 68 3.2 SE 7 13 4 7 1016.2 1016.0 0.0
26/06:00pm 17.4 14.9 11.2 67 3.4 ESE 15 20 8 11 1016.0 1015.8 0.0
26/05:30pm 17.6 15.6 11.6 68 3.3 ESE 13 19 7 10 1015.9 1015.7 0.0
26/05:00pm 17.8 15.8 11.6 67 3.4 ESE 13 20 7 11 1015.9 1015.7 0.0
26/04:30pm 17.8 15.3 11.1 65 3.6 SE 15 22 8 12 1015.9 1015.7 0.0
26/04:00pm 18.1 15.3 11.2 64 3.7 ESE 17 24 9 13 1015.8 1015.6 0.0
26/03:30pm 18.7 15.8 9.8 56 4.7 ESE 15 20 8 11 1015.5 1015.4 0.0
26/03:00pm 18.8 15.4 9.3 54 5.0 ESE 17 22 9 12 1015.5 1015.4 0.0
26/02:30pm 19.9 17.9 10.0 53 5.3 ESE 11 19 6 10 1015.4 1015.3 0.0
26/02:00pm 21.0 18.5 9.6 48 6.1 E 13 19 7 10 1015.5 1015.4 0.0
26/01:30pm 20.4 18.9 9.3 49 5.9 ESE 7 20 4 11 1015.7 1015.5 0.0
26/01:00pm 19.9 17.7 7.9 46 6.2 SE 9 17 5 9 1016.0 1015.8 0.0
26/12:30pm 19.5 17.1 8.8 50 5.6 ENE 11 20 6 11 1016.3 1016.1 0.0
26/12:00pm 19.2 18.1 8.5 50 5.6 E 4 13 2 7 1016.3 1016.1 0.0
26/11:30am 18.6 16.5 8.3 51 5.3 SSE 9 17 5 9 1016.3 1016.1 0.0
26/11:00am 18.1 15.4 7.2 49 5.5 SW 11 13 6 7 1016.3 1016.1 0.0
26/10:30am 18.1 15.9 7.8 51 5.2 SW 9 15 5 8 1016.2 1016.0 0.0
26/10:00am 17.5 14.8 5.8 46 5.7 SW 9 15 5 8 1016.2 1016.0 0.0
26/09:30am 17.0 14.9 8.2 56 4.5 SW 9 13 5 7 1016.1 1015.9 0.0

Other Formats:

Comma delimited format used in spreadsheet applications
http://www.bom.gov.au/fwo/IDN60801/IDN60801.95931.axf

JavaScript Object Notation format (JSON) in row-major order
http://www.bom.gov.au/fwo/IDN60801/IDN60801.95931.json